Search for airport 
image banner adimage banner adimage banner ad
image banner ad

5CL7 - Gene Wash Reservoir

Located in Parker Dam, United States

ICAO - 5CL7, IATA -

Data provided by Airmate  

General information

Coordinates: N34°18'31" W114°11'20"
Elevation is 850 feet MSL.
Magnetic variation is 13° East
View others Airports in California

Operational data

Special qualification required
Current time UTC:
Current local time:
Weather at : KHII - Lake Havasu City ( 33 km )
METAR: KHII 211255Z AUTO 14008KT 10SM CLR 32/04 A2979 RMK AO2
View NOTAMs / SUP AIP / TFR affecting this airport [VIEW]
Communications frequencies: [VIEW]

Runways:

RWY identifierQFULength (ft)Width (ft)SurfaceLDA (ft)
11220030ASPH
29220030ASPH

Airport contact information

Address: Parker Dam United States

Satellite view of 5CL7